Time;durP1;ratioP1;P1;durP2;ratioP2;P2;SDS_P1;SDS_P2;PMS_P1;PMS_P2;Temp;Humidity;BMP_temperature;BMP_pressure;BME280_temperature;BME280_humidity;BME280_pressure;Samples;Min_cycle;Max_cycle;Signal;HPM_P1;HPM_P2
2021/11/02 00:00:42;;;;;;;9.68;2.88;;;9.40;99.90;;;;;;5018435;28;20384;-72
2021/11/02 00:03:08;;;;;;;9.13;3.00;;;9.40;99.90;;;;;;5011858;28;20034;-71
2021/11/02 00:05:34;;;;;;;7.68;2.80;;;9.40;99.90;;;;;;5008023;28;20030;-72
2021/11/02 00:08:00;;;;;;;9.20;2.67;;;9.30;99.90;;;;;;5010891;28;20026;-71
2021/11/02 00:10:28;;;;;;;8.93;3.08;;;9.30;99.90;;;;;;5018091;28;20083;-72
2021/11/02 00:12:54;;;;;;;11.32;2.92;;;9.30;99.90;;;;;;4994184;28;20105;-72
2021/11/02 00:15:25;;;;;;;8.93;2.85;;;9.20;99.90;;;;;;5012987;28;20114;-72
2021/11/02 00:17:55;;;;;;;7.40;3.20;;;9.30;99.90;;;;;;5013392;28;20541;-75
2021/11/02 00:20:21;;;;;;;6.75;2.53;;;9.30;99.90;;;;;;5020400;28;20048;-71
2021/11/02 00:22:58;;;;;;;8.02;3.03;;;9.30;99.90;;;;;;5000000;28;20109;-71
2021/11/02 00:25:26;;;;;;;11.68;3.47;;;9.30;99.90;;;;;;5017065;28;20037;-71
2021/11/02 00:27:52;;;;;;;7.50;2.70;;;9.30;99.90;;;;;;5019293;28;20025;-71
2021/11/02 00:30:19;;;;;;;12.32;2.72;;;9.20;99.90;;;;;;4999624;28;20510;-71
2021/11/02 00:32:47;;;;;;;7.63;2.47;;;9.20;99.90;;;;;;5015219;28;20034;-73
2021/11/02 00:35:14;;;;;;;9.48;2.70;;;9.20;99.90;;;;;;5009406;28;20549;-72
2021/11/02 00:37:41;;;;;;;6.55;2.70;;;9.20;99.90;;;;;;5019214;28;20499;-71
2021/11/02 00:40:08;;;;;;;7.95;3.10;;;9.20;99.90;;;;;;5015315;28;20041;-71
2021/11/02 00:42:39;;;;;;;7.57;2.53;;;9.20;99.90;;;;;;5011750;28;20423;-71
2021/11/02 00:45:10;;;;;;;7.75;2.40;;;9.10;99.90;;;;;;5009737;28;20119;-72
2021/11/02 00:47:37;;;;;;;8.93;2.85;;;9.10;99.90;;;;;;5007453;28;20049;-71
2021/11/02 00:50:10;;;;;;;7.13;2.88;;;9.00;99.90;;;;;;4997743;28;20064;-73
2021/11/02 00:52:42;;;;;;;9.65;3.10;;;9.00;99.90;;;;;;5013671;28;20372;-72
2021/11/02 00:55:10;;;;;;;8.38;2.50;;;9.00;99.90;;;;;;4998241;28;20502;-71
2021/11/02 00:57:36;;;;;;;11.15;2.88;;;9.00;99.90;;;;;;5014197;28;20026;-71
2021/11/02 01:00:04;;;;;;;7.68;2.95;;;9.00;99.90;;;;;;5008384;28;20108;-71
2021/11/02 01:02:30;;;;;;;8.95;3.20;;;9.00;99.90;;;;;;5019679;28;20052;-72
2021/11/02 01:04:56;;;;;;;6.40;3.00;;;8.90;99.90;;;;;;5012110;28;20526;-72
2021/11/02 01:07:21;;;;;;;8.88;2.83;;;8.90;99.90;;;;;;5008877;28;20036;-73
2021/11/02 01:09:47;;;;;;;8.20;3.25;;;8.90;99.90;;;;;;5015037;28;20483;-71
2021/11/02 01:12:13;;;;;;;7.07;2.85;;;8.80;99.90;;;;;;5017334;28;20030;-71
2021/11/02 01:14:39;;;;;;;9.50;3.30;;;8.80;99.90;;;;;;4993477;28;20037;-71
2021/11/02 01:17:05;;;;;;;10.45;3.30;;;8.80;99.90;;;;;;5008666;28;20037;-72
2021/11/02 01:19:31;;;;;;;9.32;2.88;;;8.90;99.90;;;;;;5013606;28;20308;-71
2021/11/02 01:21:57;;;;;;;7.18;2.92;;;8.90;99.90;;;;;;5000627;28;20022;-71
2021/11/02 01:24:23;;;;;;;8.80;3.10;;;9.00;99.90;;;;;;5013541;28;20079;-71
2021/11/02 01:26:49;;;;;;;8.02;2.35;;;9.00;99.90;;;;;;5000276;28;20113;-71
2021/11/02 01:29:18;;;;;;;7.70;2.97;;;9.00;99.90;;;;;;5010744;28;20033;-72
2021/11/02 01:31:45;;;;;;;7.40;2.95;;;9.00;99.90;;;;;;5020503;28;20391;-71
2021/11/02 01:34:11;;;;;;;6.40;2.80;;;8.90;99.90;;;;;;5007415;28;20057;-72
2021/11/02 01:36:38;;;;;;;6.90;3.00;;;8.90;99.90;;;;;;5003778;28;20027;-71
2021/11/02 01:39:06;;;;;;;7.70;2.92;;;8.90;99.90;;;;;;4994932;28;20033;-71
2021/11/02 01:41:32;;;;;;;6.53;3.13;;;8.90;99.90;;;;;;5006548;28;20026;-71
2021/11/02 01:43:58;;;;;;;6.85;2.90;;;9.00;99.90;;;;;;5015828;28;20480;-71
2021/11/02 01:46:25;;;;;;;10.07;3.20;;;8.90;99.90;;;;;;5003281;28;20033;-71
2021/11/02 01:48:53;;;;;;;8.32;3.13;;;8.90;99.90;;;;;;5008943;28;20029;-73
2021/11/02 01:51:21;;;;;;;9.77;2.95;;;8.90;99.90;;;;;;4998884;28;20044;-72
2021/11/02 01:53:47;;;;;;;9.50;3.25;;;8.90;99.90;;;;;;5008757;28;20025;-73
2021/11/02 01:56:13;;;;;;;6.38;2.60;;;8.90;99.90;;;;;;5004969;28;20048;-72
2021/11/02 01:58:40;;;;;;;5.88;2.75;;;9.00;99.90;;;;;;5012273;28;20424;-71
2021/11/02 02:01:11;;;;;;;5.95;2.70;;;9.00;99.90;;;;;;5007688;28;20412;-72
2021/11/02 02:03:54;;;;;;;7.97;2.67;;;9.00;99.90;;;;;;5014526;28;20018;-71
2021/11/02 02:06:41;;;;;;;6.88;2.60;;;9.00;99.90;;;;;;5004102;28;20598;-71
2021/11/02 02:09:10;;;;;;;6.72;2.78;;;9.00;99.90;;;;;;4995754;28;20357;-71
2021/11/02 02:11:57;;;;;;;7.28;2.90;;;9.00;99.90;;;;;;5008960;28;20161;-71
2021/11/02 02:14:44;;;;;;;7.30;2.70;;;8.90;99.90;;;;;;5004024;28;20030;-71
2021/11/02 02:17:20;;;;;;;10.18;2.70;;;8.90;99.90;;;;;;5000676;28;20038;-71
2021/11/02 02:19:52;;;;;;;8.10;2.80;;;8.90;99.90;;;;;;5010984;28;20100;-73
2021/11/02 02:22:33;;;;;;;6.90;2.47;;;8.90;99.90;;;;;;5012699;28;20030;-72
2021/11/02 02:25:36;;;;;;;8.60;2.85;;;8.90;99.90;;;;;;5009927;28;20022;-71
2021/11/02 02:28:23;;;;;;;8.15;2.92;;;8.90;99.90;;;;;;5008919;28;20022;-71
2021/11/02 02:30:54;;;;;;;6.65;2.13;;;8.90;99.90;;;;;;5019609;28;20036;-71
2021/11/02 02:33:26;;;;;;;10.32;3.42;;;8.90;99.90;;;;;;4999038;28;20034;-71
2021/11/02 02:35:52;;;;;;;7.70;2.95;;;8.90;99.90;;;;;;4997806;28;20125;-71
2021/11/02 02:38:20;;;;;;;10.00;3.17;;;8.90;99.90;;;;;;5008645;28;20041;-73
2021/11/02 02:40:47;;;;;;;8.73;3.10;;;8.90;99.90;;;;;;5016079;28;20028;-71
2021/11/02 02:43:14;;;;;;;11.75;2.83;;;8.90;99.90;;;;;;5018860;28;20061;-72
2021/11/02 02:45:40;;;;;;;8.95;3.13;;;8.90;99.90;;;;;;5009257;28;20049;-71
2021/11/02 02:48:07;;;;;;;8.60;2.95;;;8.90;99.90;;;;;;5012762;28;20026;-72
2021/11/02 02:50:33;;;;;;;10.40;2.88;;;8.80;99.90;;;;;;4999520;28;20037;-72
2021/11/02 02:53:01;;;;;;;6.45;2.88;;;8.80;99.90;;;;;;5007545;28;20427;-71
2021/11/02 02:55:30;;;;;;;8.35;2.70;;;8.80;99.90;;;;;;5005340;28;20034;-73
2021/11/02 02:57:56;;;;;;;5.70;2.70;;;8.80;99.90;;;;;;5006810;28;20084;-71
2021/11/02 03:00:22;;;;;;;9.68;2.58;;;8.80;99.90;;;;;;5011358;28;20030;-71
2021/11/02 03:02:50;;;;;;;6.40;2.80;;;8.80;99.90;;;;;;5008912;28;20022;-71
2021/11/02 03:05:18;;;;;;;6.57;3.17;;;8.80;99.90;;;;;;5001707;28;20084;-72
2021/11/02 03:07:44;;;;;;;6.72;2.97;;;8.80;99.90;;;;;;5006529;28;20065;-70
2021/11/02 03:10:12;;;;;;;7.78;3.40;;;8.80;99.90;;;;;;5015164;28;20456;-72
2021/11/02 03:12:43;;;;;;;6.88;2.95;;;8.80;99.90;;;;;;4995549;28;20034;-72
2021/11/02 03:18:11;;;;;;;8.57;3.22;;;8.80;99.90;;;;;;5011886;28;20023;-71
2021/11/02 03:58:29;;;;;;;8.65;3.50;;;8.50;99.90;;;;;;5019408;28;20035;-70
2021/11/02 04:01:13;;;;;;;6.35;3.03;;;8.50;99.90;;;;;;5020199;28;20033;-73
2021/11/02 04:34:18;;;;;;;8.40;2.92;;;8.30;99.90;;;;;;5019445;28;20145;-73
2021/11/02 05:09:17;;;;;;;8.02;3.00;;;8.10;99.90;;;;;;5004104;28;20029;-71
2021/11/02 05:20:44;;;;;;;7.07;3.15;;;8.10;99.90;;;;;;5015695;28;20426;-71
2021/11/02 05:47:56;;;;;;;10.63;3.78;;;8.10;99.90;;;;;;5011086;28;20048;-71
2021/11/02 05:58:38;;;;;;;6.45;3.25;;;8.20;99.90;;;;;;5011954;28;20068;-71
2021/11/02 06:07:23;;;;;;;9.65;3.50;;;8.20;99.90;;;;;;5009513;28;20026;-71
2021/11/02 06:28:48;;;;;;;11.32;3.88;;;8.30;99.90;;;;;;5013822;28;20053;-70
2021/11/02 06:31:19;;;;;;;12.05;3.85;;;8.30;99.90;;;;;;5013281;28;20033;-73
2021/11/02 06:59:44;;;;;;;8.25;3.88;;;8.30;99.90;;;;;;5019916;28;20030;-73
2021/11/02 07:18:29;;;;;;;6.35;3.67;;;8.40;99.90;;;;;;5013631;28;20036;-74
2021/11/02 07:21:04;;;;;;;7.35;4.05;;;8.30;99.90;;;;;;5001839;28;20036;-74
2021/11/02 07:23:36;;;;;;;6.50;4.20;;;8.30;99.90;;;;;;5017819;28;20124;-74
2021/11/02 08:47:30;;;;;;;10.65;5.00;;;9.50;99.90;;;;;;5014728;28;20108;-75
2021/11/02 08:49:57;;;;;;;9.60;4.40;;;9.50;99.90;;;;;;5015239;28;20067;-74
2021/11/02 08:52:24;;;;;;;13.30;4.63;;;9.50;99.90;;;;;;5018742;28;20140;-75
2021/11/02 08:54:52;;;;;;;9.07;4.43;;;9.60;99.90;;;;;;5003197;28;20026;-74
2021/11/02 08:57:20;;;;;;;13.30;4.47;;;9.70;99.90;;;;;;5017707;28;20691;-74
2021/11/02 08:59:56;;;;;;;13.50;4.78;;;9.80;99.90;;;;;;5020912;28;20109;-73
2021/11/02 09:02:27;;;;;;;8.25;3.92;;;9.80;99.90;;;;;;5000892;28;20033;-74
2021/11/02 09:05:09;;;;;;;13.43;5.75;;;9.90;99.90;;;;;;5000322;28;20028;-74
2021/11/02 09:07:37;;;;;;;9.02;5.07;;;10.00;99.90;;;;;;5019192;28;20025;-74
2021/11/02 09:10:16;;;;;;;9.07;4.10;;;10.10;99.90;;;;;;5001971;28;20056;-74
2021/11/02 09:12:50;;;;;;;14.13;5.30;;;10.20;99.90;;;;;;4999681;28;20029;-75
2021/11/02 09:15:21;;;;;;;9.02;4.45;;;10.20;99.90;;;;;;5018212;28;20136;-74
2021/11/02 09:17:50;;;;;;;10.32;5.07;;;10.30;99.90;;;;;;5012002;28;20510;-73
2021/11/02 09:20:17;;;;;;;9.88;4.57;;;10.30;99.90;;;;;;4995787;28;20029;-76
2021/11/02 09:22:46;;;;;;;12.20;4.68;;;10.40;99.90;;;;;;5013545;28;20049;-74
2021/11/02 09:25:13;;;;;;;10.95;4.05;;;10.50;99.90;;;;;;5013814;28;20428;-73
2021/11/02 09:27:39;;;;;;;8.75;4.07;;;10.50;99.90;;;;;;5017744;28;20029;-73
2021/11/02 09:30:08;;;;;;;9.38;4.68;;;10.60;99.90;;;;;;5014216;28;20065;-74
2021/11/02 09:32:44;;;;;;;11.18;5.18;;;10.70;99.90;;;;;;5016489;28;20065;-73
2021/11/02 09:35:15;;;;;;;9.80;4.28;;;10.80;99.90;;;;;;5014610;28;20037;-74
2021/11/02 09:37:43;;;;;;;7.93;4.70;;;10.80;99.90;;;;;;5018432;28;20272;-74
2021/11/02 09:40:27;;;;;;;7.65;4.45;;;10.90;99.90;;;;;;4999702;28;20026;-73
2021/11/02 09:43:14;;;;;;;8.75;5.10;;;10.90;99.90;;;;;;4999887;28;20483;-73
2021/11/02 09:45:55;;;;;;;11.80;5.22;;;11.00;99.90;;;;;;5018074;28;20030;-73
2021/11/02 09:48:30;;;;;;;10.02;5.07;;;11.00;99.90;;;;;;5014596;28;20033;-74
2021/11/02 09:51:17;;;;;;;10.32;4.28;;;11.00;99.90;;;;;;5016417;28;20040;-73
2021/11/02 09:54:12;;;;;;;16.55;4.72;;;11.00;99.90;;;;;;5018597;28;20033;-73
2021/11/02 09:56:54;;;;;;;8.15;4.30;;;11.00;99.90;;;;;;5015195;28;20029;-74
2021/11/02 09:59:35;;;;;;;6.72;3.67;;;11.00;99.90;;;;;;5018411;28;20183;-73
2021/11/02 10:02:20;;;;;;;7.68;3.25;;;11.10;99.90;;;;;;4998805;28;20411;-74
2021/11/02 10:05:22;;;;;;;15.15;4.70;;;11.10;99.90;;;;;;5000111;28;20551;-73
2021/11/02 10:08:01;;;;;;;7.57;3.45;;;11.20;99.90;;;;;;5017390;28;20443;-73
2021/11/02 10:10:55;;;;;;;5.80;3.05;;;11.20;99.90;;;;;;5019611;28;20033;-74
2021/11/02 10:13:33;;;;;;;11.82;3.88;;;11.20;99.90;;;;;;5018198;28;20029;-74
2021/11/02 10:16:41;;;;;;;7.05;3.22;;;11.20;99.90;;;;;;5017379;28;20555;-74
2021/11/02 10:19:29;;;;;;;7.93;4.00;;;11.20;99.90;;;;;;5016196;28;20037;-74
2021/11/02 10:22:19;;;;;;;7.97;4.15;;;11.00;99.90;;;;;;5017958;28;20353;-74
2021/11/02 10:25:11;;;;;;;11.10;4.50;;;11.00;99.90;;;;;;5018366;28;20083;-74
2021/11/02 10:28:19;;;;;;;9.90;4.40;;;10.90;99.90;;;;;;4985488;28;20037;-74
2021/11/02 10:31:11;;;;;;;8.07;3.35;;;10.90;99.90;;;;;;4997830;28;20431;-74
2021/11/02 10:33:46;;;;;;;9.10;4.22;;;11.00;99.90;;;;;;4995498;28;20045;-74
2021/11/02 10:36:23;;;;;;;6.10;3.67;;;11.00;99.90;;;;;;5007509;28;20133;-74
2021/11/02 10:39:06;;;;;;;8.18;3.95;;;11.10;99.90;;;;;;5014165;28;20106;-74
2021/11/02 10:41:35;;;;;;;10.32;3.90;;;11.30;99.90;;;;;;5016123;28;20041;-75
2021/11/02 10:44:11;;;;;;;10.27;4.70;;;11.40;99.90;;;;;;5000579;28;20137;-74
2021/11/02 10:46:43;;;;;;;9.77;4.72;;;11.60;99.90;;;;;;5016191;28;20030;-74
2021/11/02 10:49:22;;;;;;;8.93;4.00;;;11.70;99.60;;;;;;5016682;28;20569;-75
2021/11/02 10:52:01;;;;;;;11.23;4.22;;;11.90;99.50;;;;;;5017596;28;20076;-74
2021/11/02 10:55:06;;;;;;;10.45;4.25;;;12.10;99.20;;;;;;5019201;28;20030;-74
2021/11/02 10:57:38;;;;;;;10.40;4.35;;;12.20;98.70;;;;;;5023867;28;20029;-74
2021/11/02 11:00:07;;;;;;;8.48;4.18;;;12.20;98.60;;;;;;5012537;28;20033;-74
2021/11/02 11:02:34;;;;;;;8.95;3.92;;;12.20;98.30;;;;;;5016671;28;20030;-75
2021/11/02 11:05:03;;;;;;;11.90;4.10;;;12.20;98.70;;;;;;4998659;28;20049;-74
2021/11/02 11:07:40;;;;;;;8.10;4.10;;;12.30;98.20;;;;;;5017084;28;20034;-73
2021/11/02 11:10:09;;;;;;;9.75;4.82;;;12.50;98.00;;;;;;5000171;28;20521;-74
2021/11/02 11:13:03;;;;;;;9.65;4.00;;;12.70;97.70;;;;;;5016399;28;20056;-74
2021/11/02 11:15:34;;;;;;;15.65;4.95;;;12.90;96.70;;;;;;5015166;28;20056;-74
2021/11/02 11:18:06;;;;;;;10.77;4.93;;;13.00;96.00;;;;;;5000258;28;20547;-73
2021/11/02 11:20:34;;;;;;;10.07;4.70;;;13.00;95.30;;;;;;5016027;28;20061;-74
2021/11/02 11:23:05;;;;;;;10.98;4.65;;;12.90;95.90;;;;;;5001636;28;20033;-74
2021/11/02 11:25:38;;;;;;;11.20;5.18;;;12.90;96.00;;;;;;5009332;28;20096;-74
2021/11/02 11:28:05;;;;;;;16.85;6.38;;;12.70;95.50;;;;;;5017001;28;20116;-74
2021/11/02 11:30:34;;;;;;;13.75;5.40;;;12.50;96.00;;;;;;5017938;28;20372;-75
2021/11/02 11:33:05;;;;;;;9.07;4.78;;;12.40;96.50;;;;;;5019385;28;20030;-75
2021/11/02 11:35:36;;;;;;;14.80;5.75;;;12.30;96.90;;;;;;5021731;28;20029;-76
2021/11/02 11:38:07;;;;;;;10.18;4.82;;;12.10;97.20;;;;;;5018979;28;20396;-75
2021/11/02 11:40:36;;;;;;;8.60;4.68;;;12.00;97.50;;;;;;5001412;28;20128;-75
2021/11/02 11:43:05;;;;;;;11.57;4.80;;;11.80;97.50;;;;;;5020729;28;20103;-75
2021/11/02 11:45:32;;;;;;;9.77;5.07;;;11.80;98.00;;;;;;5018725;28;20491;-75
2021/11/02 11:48:21;;;;;;;14.32;6.13;;;11.80;98.20;;;;;;5019889;28;20396;-75
2021/11/02 11:50:48;;;;;;;11.98;5.57;;;11.70;98.50;;;;;;5000784;28;20026;-75
2021/11/02 11:53:18;;;;;;;15.57;6.20;;;11.70;98.60;;;;;;5005023;28;20037;-75
2021/11/02 11:55:47;;;;;;;10.23;5.40;;;11.70;98.80;;;;;;5019886;28;20022;-76
2021/11/02 11:58:21;;;;;;;15.82;6.22;;;11.70;98.70;;;;;;5021242;28;20030;-75
2021/11/02 12:01:06;;;;;;;15.10;6.38;;;11.70;98.80;;;;;;5019350;28;20058;-77
2021/11/02 12:03:55;;;;;;;8.80;5.05;;;11.60;98.60;;;;;;5001136;28;20026;-76
2021/11/02 12:06:35;;;;;;;15.13;6.82;;;11.60;99.00;;;;;;5002201;28;20391;-75
2021/11/02 12:09:19;;;;;;;12.32;6.20;;;11.60;99.10;;;;;;5017803;28;20038;-75
2021/11/02 12:11:46;;;;;;;10.77;5.25;;;11.70;98.80;;;;;;5012897;28;20108;-75
2021/11/02 12:14:20;;;;;;;11.57;5.38;;;11.90;98.80;;;;;;5011281;28;20038;-75
2021/11/02 12:16:47;;;;;;;11.30;5.28;;;12.00;98.70;;;;;;4999123;28;20060;-75
2021/11/02 12:19:19;;;;;;;16.30;6.68;;;12.10;98.40;;;;;;5016360;28;20392;-75
2021/11/02 12:21:51;;;;;;;13.07;5.13;;;12.00;98.30;;;;;;5015702;28;21577;-75
2021/11/02 12:24:20;;;;;;;10.90;4.90;;;12.00;98.30;;;;;;5016517;28;20034;-75
2021/11/02 12:26:49;;;;;;;8.93;4.30;;;11.90;98.50;;;;;;5001006;28;20387;-75
2021/11/02 12:29:27;;;;;;;6.57;4.03;;;11.80;98.70;;;;;;5019133;28;20030;-76
2021/11/02 12:32:00;;;;;;;11.48;5.40;;;11.80;98.90;;;;;;5012871;28;20035;-76
2021/11/02 12:34:29;;;;;;;13.98;5.07;;;11.70;99.00;;;;;;5017924;28;20104;-77
2021/11/02 12:36:58;;;;;;;8.90;4.40;;;11.70;99.20;;;;;;5001794;28;20431;-78
2021/11/02 12:39:28;;;;;;;10.27;4.43;;;11.70;99.40;;;;;;5017495;28;20026;-75
2021/11/02 12:41:57;;;;;;;9.68;4.85;;;11.70;99.50;;;;;;5019102;28;20431;-75
2021/11/02 12:44:34;;;;;;;8.90;4.88;;;11.70;99.60;;;;;;5011466;28;20148;-74
2021/11/02 12:47:03;;;;;;;10.23;5.10;;;11.70;99.40;;;;;;5005804;28;20075;-74
2021/11/02 12:49:38;;;;;;;8.65;4.85;;;11.70;99.40;;;;;;5009299;28;20065;-74
2021/11/02 12:52:07;;;;;;;10.45;4.60;;;11.70;99.50;;;;;;5018786;28;20626;-74
2021/11/02 12:54:34;;;;;;;9.02;4.90;;;11.70;99.50;;;;;;5018960;28;20128;-74
2021/11/02 12:57:04;;;;;;;10.25;5.50;;;11.70;99.40;;;;;;5017759;28;20578;-75
2021/11/02 12:59:36;;;;;;;9.02;4.40;;;11.70;99.20;;;;;;5018335;28;20037;-75
2021/11/02 13:02:30;;;;;;;6.63;4.18;;;11.80;99.20;;;;;;5017588;28;20049;-74
2021/11/02 13:05:22;;;;;;;10.95;4.30;;;11.90;99.20;;;;;;5020409;28;20420;-75
2021/11/02 13:08:08;;;;;;;9.48;4.68;;;12.10;99.20;;;;;;4999695;28;20030;-74
2021/11/02 13:10:35;;;;;;;9.45;4.47;;;12.20;98.70;;;;;;4998132;28;20060;-75
2021/11/02 13:13:09;;;;;;;11.18;4.25;;;12.30;98.70;;;;;;4997984;28;20483;-75
2021/11/02 13:15:55;;;;;;;10.93;3.47;;;12.50;98.80;;;;;;5015127;28;20033;-74
2021/11/02 13:18:47;;;;;;;10.82;3.88;;;12.60;98.50;;;;;;5016806;28;20029;-75
2021/11/02 13:21:20;;;;;;;15.93;4.38;;;12.60;98.30;;;;;;5009017;28;20072;-75
2021/11/02 13:24:12;;;;;;;9.43;4.07;;;12.50;97.70;;;;;;5008006;28;20025;-76
2021/11/02 13:26:46;;;;;;;7.88;3.72;;;12.50;98.10;;;;;;5011729;28;20068;-75
2021/11/02 13:29:15;;;;;;;6.70;4.13;;;12.60;98.20;;;;;;5018327;28;20496;-75
2021/11/02 13:31:45;;;;;;;6.63;3.83;;;12.60;98.20;;;;;;5014352;28;20502;-74
2021/11/02 13:34:19;;;;;;;6.32;3.10;;;12.60;98.10;;;;;;5020034;28;20065;-75
2021/11/02 13:36:46;;;;;;;8.57;3.42;;;12.70;97.90;;;;;;5017780;28;20395;-74
2021/11/02 13:39:14;;;;;;;7.53;3.58;;;12.60;97.30;;;;;;5018868;28;21819;-75
2021/11/02 13:41:48;;;;;;;4.93;2.95;;;12.50;96.80;;;;;;5015095;28;20096;-76
2021/11/02 13:44:15;;;;;;;8.98;3.00;;;12.60;96.90;;;;;;5018138;28;20039;-75
2021/11/02 13:46:47;;;;;;;7.50;3.17;;;12.60;96.70;;;;;;5018339;28;20575;-74
2021/11/02 13:49:14;;;;;;;7.03;3.22;;;12.50;96.70;;;;;;5018417;28;20038;-74
2021/11/02 13:51:40;;;;;;;7.13;3.47;;;12.60;96.80;;;;;;5018948;28;20029;-75
2021/11/02 13:54:07;;;;;;;7.38;3.60;;;12.60;96.90;;;;;;5019988;28;20048;-75
2021/11/02 13:56:41;;;;;;;7.13;3.10;;;12.60;96.70;;;;;;5000755;28;20040;-75
2021/11/02 13:59:08;;;;;;;7.75;3.25;;;12.60;96.90;;;;;;4999912;28;20451;-75
2021/11/02 14:01:56;;;;;;;6.22;3.00;;;12.50;96.60;;;;;;5017530;28;20471;-75
2021/11/02 14:04:27;;;;;;;4.93;2.15;;;12.60;96.70;;;;;;5017136;28;20025;-75
2021/11/02 14:07:15;;;;;;;9.02;3.28;;;12.60;96.40;;;;;;5020337;28;20117;-75
2021/11/02 14:09:57;;;;;;;5.32;2.53;;;12.50;96.40;;;;;;5017244;28;20496;-75
2021/11/02 14:12:27;;;;;;;4.47;2.67;;;12.50;96.50;;;;;;5018154;28;20060;-75
2021/11/02 14:15:14;;;;;;;7.60;2.55;;;12.60;96.70;;;;;;5017566;28;20055;-75
2021/11/02 14:17:45;;;;;;;5.53;2.40;;;12.60;95.90;;;;;;5017670;28;20030;-75
2021/11/02 14:20:31;;;;;;;8.65;2.72;;;12.50;96.30;;;;;;5015387;28;20027;-76
2021/11/02 14:22:57;;;;;;;4.00;2.22;;;12.50;96.70;;;;;;5015741;28;20030;-75
2021/11/02 14:25:35;;;;;;;6.43;2.75;;;12.50;96.90;;;;;;5017101;28;20087;-75
2021/11/02 14:28:01;;;;;;;6.55;3.05;;;12.40;96.90;;;;;;5016432;28;20110;-75
2021/11/02 14:30:32;;;;;;;5.95;2.42;;;12.30;96.90;;;;;;5015350;28;20379;-75
2021/11/02 14:33:04;;;;;;;5.03;2.13;;;12.30;96.90;;;;;;5001350;28;20064;-75
2021/11/02 14:35:50;;;;;;;6.15;2.40;;;12.10;96.90;;;;;;5016547;28;20065;-75
2021/11/02 14:38:16;;;;;;;6.63;2.25;;;12.00;96.40;;;;;;5017499;28;20033;-75
2021/11/02 14:40:47;;;;;;;5.57;1.98;;;11.90;96.90;;;;;;5017272;28;20472;-75
2021/11/02 14:43:13;;;;;;;7.05;2.92;;;11.90;97.20;;;;;;5017807;28;20056;-75
2021/11/02 14:45:50;;;;;;;3.97;2.17;;;11.90;97.40;;;;;;5016013;28;20475;-74
2021/11/02 14:48:35;;;;;;;6.03;2.30;;;11.80;97.60;;;;;;5012560;28;20026;-74
2021/11/02 14:51:02;;;;;;;4.53;2.20;;;11.80;97.80;;;;;;5014315;28;20042;-74
2021/11/02 14:53:37;;;;;;;5.38;2.08;;;11.80;98.00;;;;;;4997708;28;20076;-74
2021/11/02 14:56:06;;;;;;;6.43;2.55;;;11.70;98.20;;;;;;5018460;28;20033;-74
2021/11/02 14:58:41;;;;;;;6.45;2.60;;;11.70;98.20;;;;;;5017654;28;20495;-74
2021/11/02 15:01:10;;;;;;;6.75;2.28;;;11.70;98.30;;;;;;5002272;28;20376;-74
2021/11/02 15:03:36;;;;;;;5.53;2.55;;;11.60;98.10;;;;;;5020799;28;20086;-74
2021/11/02 15:06:08;;;;;;;7.75;3.20;;;11.60;98.20;;;;;;5022026;28;20026;-74
2021/11/02 15:08:36;;;;;;;8.32;2.90;;;11.50;98.30;;;;;;5022247;28;20164;-74
2021/11/02 15:11:07;;;;;;;7.75;2.90;;;11.50;98.50;;;;;;5020958;28;20468;-74
2021/11/02 15:13:33;;;;;;;5.07;3.00;;;11.40;98.50;;;;;;5019029;28;20561;-74
2021/11/02 15:16:01;;;;;;;8.60;2.95;;;11.40;98.70;;;;;;5001820;28;20034;-74
2021/11/02 15:18:47;;;;;;;6.00;2.70;;;11.30;98.80;;;;;;5000841;28;20034;-74
2021/11/02 15:21:21;;;;;;;6.13;3.00;;;11.30;99.00;;;;;;5017042;28;20060;-74
2021/11/02 15:23:49;;;;;;;5.95;3.05;;;11.20;99.20;;;;;;5001795;28;20038;-75
2021/11/02 15:26:16;;;;;;;5.40;2.72;;;11.10;99.50;;;;;;5020525;28;20128;-75
2021/11/02 15:28:48;;;;;;;7.40;3.10;;;11.10;99.40;;;;;;5019445;28;20029;-75
2021/11/02 15:31:22;;;;;;;6.82;3.10;;;11.00;99.50;;;;;;5019944;28;20030;-76
2021/11/02 15:33:48;;;;;;;6.28;2.92;;;11.00;99.60;;;;;;5022475;28;20502;-74
2021/11/02 15:36:22;;;;;;;6.53;3.20;;;10.90;99.80;;;;;;5001911;28;20037;-75
2021/11/02 15:38:59;;;;;;;5.40;3.10;;;10.90;99.90;;;;;;5002729;28;20037;-74
2021/11/02 15:41:26;;;;;;;8.95;3.10;;;10.90;99.90;;;;;;5020740;28;20234;-74
2021/11/02 15:44:03;;;;;;;7.65;3.28;;;10.80;99.90;;;;;;5019182;28;20058;-74
2021/11/02 15:46:35;;;;;;;6.88;3.20;;;10.90;99.90;;;;;;5017731;28;20033;-74
2021/11/02 15:49:04;;;;;;;8.43;3.70;;;10.80;99.90;;;;;;5018116;28;20033;-74
2021/11/02 15:51:41;;;;;;;10.27;3.33;;;10.80;99.90;;;;;;5007263;28;20022;-75
2021/11/02 15:54:13;;;;;;;6.85;3.72;;;10.70;99.90;;;;;;5018547;28;20040;-74
2021/11/02 15:56:40;;;;;;;7.18;3.60;;;10.70;99.90;;;;;;5001723;28;20642;-75
2021/11/02 15:59:08;;;;;;;6.00;3.90;;;10.60;99.90;;;;;;5022193;28;20040;-74
2021/11/02 16:01:39;;;;;;;7.05;3.35;;;10.60;99.90;;;;;;5015556;28;20035;-74
2021/11/02 16:04:15;;;;;;;;;;;10.60;99.90;;;;;;5021730;28;20121;-74
2021/11/02 16:07:00;;;;;;;9.38;3.55;;;10.60;99.90;;;;;;5012010;28;19955;-75
2021/11/02 16:09:47;;;;;;;9.25;3.95;;;10.50;99.90;;;;;;5016233;28;20026;-76
2021/11/02 16:12:30;;;;;;;7.97;3.38;;;10.50;99.90;;;;;;5008773;28;20041;-75
2021/11/02 16:15:08;;;;;;;8.55;3.55;;;10.50;99.90;;;;;;5002485;28;20073;-76
2021/11/02 16:17:43;;;;;;;7.72;4.22;;;10.40;99.90;;;;;;5003631;28;20370;-75
2021/11/02 16:20:31;;;;;;;8.77;3.33;;;10.40;99.90;;;;;;5008002;28;20101;-74
2021/11/02 16:23:09;;;;;;;5.90;3.10;;;10.40;99.90;;;;;;5013679;28;20423;-75
2021/11/02 16:25:39;;;;;;;7.60;3.80;;;10.30;99.90;;;;;;4999257;28;20060;-75
2021/11/02 16:28:25;;;;;;;7.47;3.95;;;10.30;99.90;;;;;;4999681;28;20095;-75
2021/11/02 16:31:03;;;;;;;5.03;3.33;;;10.30;99.90;;;;;;5007122;28;20021;-75
2021/11/02 16:33:36;;;;;;;7.63;4.53;;;10.30;99.90;;;;;;5013286;28;20037;-74
2021/11/02 16:36:29;;;;;;;7.22;3.72;;;10.30;99.90;;;;;;5015996;28;20161;-74
2021/11/02 16:38:56;;;;;;;8.77;3.97;;;10.20;99.90;;;;;;5014356;28;20543;-74
2021/11/02 16:41:43;;;;;;;7.10;4.07;;;10.20;99.90;;;;;;5009101;28;20436;-74
2021/11/02 16:44:12;;;;;;;9.50;4.50;;;10.20;99.90;;;;;;5005015;28;20027;-74
2021/11/02 16:46:40;;;;;;;8.13;4.00;;;10.20;99.90;;;;;;5002798;28;20022;-73
2021/11/02 16:49:14;;;;;;;9.88;4.75;;;10.10;99.90;;;;;;5005444;28;20045;-74
2021/11/02 16:51:53;;;;;;;9.70;4.65;;;10.10;99.90;;;;;;5009255;28;20548;-74
2021/11/02 16:54:26;;;;;;;7.72;4.40;;;10.10;99.90;;;;;;4999719;28;20029;-74
2021/11/02 16:57:02;;;;;;;6.50;4.50;;;10.10;99.90;;;;;;5012527;28;20037;-73
2021/11/02 16:59:40;;;;;;;9.48;5.07;;;10.00;99.90;;;;;;5022837;28;20109;-74
2021/11/02 17:02:32;;;;;;;9.02;4.60;;;10.00;99.90;;;;;;5011699;28;20146;-74
2021/11/02 17:05:03;;;;;;;13.35;5.20;;;10.00;99.90;;;;;;5019089;28;20113;-75
2021/11/02 17:07:46;;;;;;;9.70;5.30;;;10.00;99.90;;;;;;4999047;28;20088;-73
2021/11/02 17:10:27;;;;;;;11.15;5.13;;;10.00;99.90;;;;;;5013124;28;20026;-73
2021/11/02 17:13:04;;;;;;;;;;;9.90;99.90;;;;;;5020673;28;20064;-73
2021/11/02 17:15:33;;;;;;;9.82;5.13;;;9.90;99.90;;;;;;5018674;28;19909;-73
2021/11/02 17:18:00;;;;;;;9.18;4.63;;;9.90;99.90;;;;;;4993796;28;20026;-73
2021/11/02 17:20:27;;;;;;;10.30;4.93;;;9.80;99.90;;;;;;5016859;28;20100;-73
2021/11/02 17:22:53;;;;;;;8.63;5.63;;;9.80;99.90;;;;;;5018643;28;20152;-73
2021/11/02 17:25:22;;;;;;;8.15;4.80;;;9.80;99.90;;;;;;5022422;28;20060;-74
2021/11/02 17:27:49;;;;;;;10.15;5.15;;;9.80;99.90;;;;;;5016389;28;20037;-74
2021/11/02 17:30:31;;;;;;;11.27;5.15;;;9.80;99.90;;;;;;4997061;28;20053;-73
2021/11/02 17:32:58;;;;;;;12.57;5.78;;;9.70;99.90;;;;;;5011748;28;20439;-74
2021/11/02 17:35:25;;;;;;;10.57;6.03;;;9.70;99.90;;;;;;5005065;28;20052;-74
2021/11/02 17:37:52;;;;;;;10.68;5.72;;;9.70;99.90;;;;;;5011638;28;20101;-77
2021/11/02 17:40:20;;;;;;;10.52;6.40;;;9.70;99.90;;;;;;5018706;28;20036;-74
2021/11/02 17:42:52;;;;;;;13.32;7.07;;;9.70;99.90;;;;;;5011707;28;20508;-73
2021/11/02 17:45:18;;;;;;;15.13;7.78;;;9.60;99.90;;;;;;4998261;28;20025;-73
2021/11/02 17:47:46;;;;;;;12.00;7.13;;;9.60;99.90;;;;;;5017453;28;20026;-74
2021/11/02 17:50:17;;;;;;;11.52;7.40;;;9.60;99.90;;;;;;4994565;28;20062;-73
2021/11/02 17:52:44;;;;;;;17.85;8.00;;;9.60;99.90;;;;;;5016377;28;20076;-73
2021/11/02 17:55:12;;;;;;;13.93;8.05;;;9.60;99.90;;;;;;5025985;28;20017;-73
2021/11/02 17:57:40;;;;;;;10.73;7.00;;;9.60;99.90;;;;;;5009049;28;20022;-73
2021/11/02 18:00:08;;;;;;;12.13;7.07;;;9.50;99.90;;;;;;5010570;28;20034;-73
2021/11/02 18:02:35;;;;;;;14.40;7.90;;;9.50;99.90;;;;;;5006253;28;20017;-73
2021/11/02 18:05:02;;;;;;;16.30;7.03;;;9.50;99.90;;;;;;5007055;28;20122;-74
2021/11/02 18:07:29;;;;;;;13.38;6.95;;;9.50;99.90;;;;;;5012204;28;20118;-74
2021/11/02 18:09:56;;;;;;;12.60;6.88;;;9.50;99.90;;;;;;5014493;28;20398;-74
2021/11/02 18:12:27;;;;;;;13.68;8.07;;;9.50;99.90;;;;;;5013454;28;20034;-74